Aeroporto :
LOGIN :

Iscrizione | Disclaimer

   EN    FR    IT 

 










Sommario :    VFR   VFR Marginale   IFR   IFR Intensivo   IFR Molto Intensivo
Visibilità : 
Base nubi : 
>= 8 km
>= 3000ft
5 / 8 km
1000 / 3000 ft
1500m / 5 km
500 / 1000 ft
800 / 1500m
200 / 500 ft
< 800m
< 200 ft
Simboli :   Temporali  Nebbia  Neve Forte  Precipitazioni Forti  Vento > 20 kt
SIGMETs :   Varie  Temporali  Ghiacco  Turbolenza  Onda orograficha  Ceneri Vulcaniche






- Altitudine del aeroporto : 226 ft
- Codice IATA : BEX


EGUB - RAF Benson

ULTIMO METAR :
  • 171820Z 12002KT CAVOK M00/M01 Q1038 NOSIG RMK BLU BLU

METARs OBSOLETI :
  • 171750Z 14001KT CAVOK M00/M01 Q1038 NOSIG RMK BLU BLU
  • 171721Z 09004KT CAVOK 00/M01 Q1038 NOSIG RMK BLU BLU
  • 171650Z 08002KT CAVOK 00/M01 Q1038 NOSIG RMK BLU BLU
  • 171620Z 06001KT CAVOK 04/01 Q1038 NOSIG RMK BLU BLU
  • 171550Z 18001KT CAVOK 07/03 Q1038 NOSIG RMK BLU BLU

TAF TAF EGUB
Valido dal 17 a 18 ore il 17 a 23 ore UTC


171637Z 1718/1723 VRB02KT CAVOK
PROB40 1719/1723 4000 BR
PROB30 1721/1723 0500 FZFG VV///
ATIS : +44 1491-837766 (x7524)



MetMap, La meteo Aeronautica in un colpo d'occhio ! - Copyright ORBIFLY Dicembre 2007 - Disclaimer

ORBIFLY MET'MAP TEAM :

Programmazione e sviluppo : Alexandra Zaïnal
Concezione : Baudouin d'Aumeries
Aiuto per la programmazione : Marc-Olivier Méhu
Supporto tecnico e logistico : Manuel Goepfert
Aiuto per la traduzione : Arnaldo La Scala

Contatto : metmap@orbifly.com




FONTI E CREDITI :

   NOAA